createdAt,value
2023-04-18T00:00:21.820Z,101459.00
2023-04-18T00:05:47.292Z,101459.04
2023-04-18T00:10:50.217Z,101465.56
2023-04-18T00:15:54.219Z,101453.33
2023-04-18T00:20:56.991Z,101453.41
2023-04-18T00:26:00.012Z,101451.02
2023-04-18T00:31:03.546Z,101456.09
2023-04-18T00:36:06.627Z,101448.86
2023-04-18T00:41:09.416Z,101455.23
2023-04-18T00:46:12.175Z,101451.27
2023-04-18T00:51:15.692Z,101452.70
2023-04-18T00:56:19.340Z,101448.14
2023-04-18T01:01:22.237Z,101453.70
2023-04-18T01:06:27.528Z,101457.61
2023-04-18T01:11:30.476Z,101458.30
2023-04-18T01:16:34.658Z,101460.79
2023-04-18T01:22:00.548Z,101456.27
2023-04-18T01:27:03.485Z,101456.83
2023-04-18T01:32:07.067Z,101452.46
2023-04-18T01:37:09.781Z,101453.10
2023-04-18T01:42:12.526Z,101457.48
2023-04-18T01:47:15.251Z,101461.17
2023-04-18T01:52:18.271Z,101465.88
2023-04-18T01:57:21.114Z,101465.98
2023-04-18T02:02:24.021Z,101466.41
2023-04-18T02:07:26.997Z,101464.92
2023-04-18T02:12:29.703Z,101462.25
2023-04-18T02:17:32.425Z,101468.73
2023-04-18T02:22:38.234Z,101467.08
2023-04-18T02:27:41.262Z,101464.42
2023-04-18T02:32:44.080Z,101460.16
2023-04-18T02:37:46.908Z,101458.59
2023-04-18T02:42:49.609Z,101452.76
2023-04-18T02:47:55.856Z,101452.69
2023-04-18T02:53:00.157Z,101453.85
2023-04-18T02:58:03.330Z,101452.98
2023-04-18T03:03:06.227Z,101454.65
2023-04-18T03:08:09.268Z,101454.58
2023-04-18T03:13:12.154Z,101455.30
2023-04-18T03:18:14.915Z,101455.21
2023-04-18T03:23:17.661Z,101456.52
2023-04-18T03:28:20.473Z,101458.42
2023-04-18T03:33:23.957Z,101458.48
2023-04-18T03:38:26.782Z,101462.50
2023-04-18T03:43:29.528Z,101459.16
2023-04-18T03:48:35.856Z,101458.98
2023-04-18T03:53:38.653Z,101458.55
2023-04-18T03:58:41.372Z,101458.32
2023-04-18T04:03:44.278Z,101466.62
2023-04-18T04:08:47.124Z,101469.31
2023-04-18T04:13:49.955Z,101472.83
2023-04-18T04:18:52.753Z,101474.27
2023-04-18T04:23:55.479Z,101476.67
2023-04-18T04:28:58.389Z,101479.08
2023-04-18T04:34:01.784Z,101474.26
2023-04-18T04:39:05.378Z,101481.09
2023-04-18T04:44:10.362Z,101485.36
2023-04-18T04:49:13.109Z,101488.63
2023-04-18T04:54:16.302Z,101498.86
2023-04-18T04:59:19.618Z,101501.64
2023-04-18T05:04:22.495Z,101504.46
2023-04-18T05:09:26.180Z,101501.95
2023-04-18T05:14:28.893Z,101506.50
2023-04-18T05:19:31.590Z,101508.16
2023-04-18T05:24:34.258Z,101510.54
2023-04-18T05:29:36.920Z,101514.30
2023-04-18T05:34:39.646Z,101516.77
2023-04-18T05:39:42.484Z,101513.67
2023-04-18T05:44:45.162Z,101511.46
2023-04-18T05:49:47.868Z,101514.50
2023-04-18T05:54:51.181Z,101513.74
2023-04-18T05:59:54.113Z,101509.98
2023-04-18T06:04:57.564Z,101511.84
2023-04-18T06:10:00.545Z,101509.45
2023-04-18T06:15:05.278Z,101508.21
2023-04-18T06:20:10.056Z,101507.67
2023-04-18T06:25:12.871Z,101502.25
2023-04-18T06:30:15.799Z,101506.23
2023-04-18T06:35:18.752Z,101506.94
2023-04-18T06:40:21.538Z,101499.93
2023-04-18T06:45:24.616Z,101501.85
2023-04-18T06:50:30.664Z,101503.73
2023-04-18T06:55:33.943Z,101506.48
2023-04-18T07:00:42.079Z,101513.58
2023-04-18T07:05:50.967Z,101508.76
2023-04-18T07:10:53.840Z,101511.35
2023-04-18T07:15:56.835Z,101507.54
2023-04-18T07:20:59.534Z,101507.40
2023-04-18T07:26:03.178Z,101507.80
2023-04-18T07:31:09.112Z,101507.14
2023-04-18T07:36:12.317Z,101508.48
2023-04-18T07:41:15.717Z,101508.22
2023-04-18T07:46:19.011Z,101504.15
2023-04-18T07:51:22.203Z,101508.06
2023-04-18T07:56:25.976Z,101503.90
2023-04-18T08:01:28.737Z,101502.88
2023-04-18T08:06:31.535Z,101502.06
2023-04-18T08:11:35.186Z,101503.09
2023-04-18T08:16:39.536Z,101503.13
2023-04-18T08:21:42.217Z,101505.36
2023-04-18T08:26:45.114Z,101505.70
2023-04-18T08:31:50.525Z,101499.81
2023-04-18T08:37:04.674Z,101498.80
2023-04-18T08:42:24.531Z,101495.79
2023-04-18T08:47:31.402Z,101496.87
2023-04-18T08:52:36.173Z,101497.95
2023-04-18T08:57:39.879Z,101489.27
2023-04-18T09:02:43.118Z,101488.35
2023-04-18T09:07:50.464Z,101479.62
2023-04-18T09:12:53.223Z,101474.16
2023-04-18T09:17:58.821Z,101471.18
2023-04-18T09:23:04.385Z,101465.98
2023-04-18T09:28:24.037Z,101470.56
2023-04-18T09:33:35.293Z,101466.57
2023-04-18T09:38:41.235Z,101464.96
2023-04-18T09:43:48.207Z,101467.96
2023-04-18T09:48:54.129Z,101462.75
2023-04-18T09:53:59.733Z,101459.67
2023-04-18T09:59:10.310Z,101455.55
2023-04-18T10:04:17.621Z,101455.37
2023-04-18T10:09:21.225Z,101449.30
2023-04-18T10:14:25.039Z,101444.34
2023-04-18T10:19:30.044Z,101432.23
2023-04-18T10:24:54.266Z,101432.93
2023-04-18T10:29:57.107Z,101423.57
2023-04-18T10:35:00.700Z,101421.81
2023-04-18T10:40:06.976Z,101420.10
2023-04-18T10:45:19.843Z,101423.27
2023-04-18T10:50:24.057Z,101417.92
2023-04-18T10:55:29.373Z,101417.44
2023-04-18T11:00:32.631Z,101410.61
2023-04-18T11:05:35.683Z,101411.39
2023-04-18T11:10:38.929Z,101407.50
2023-04-18T11:15:41.764Z,101399.22
2023-04-18T11:20:49.703Z,101396.23
2023-04-18T11:25:56.476Z,101386.54
2023-04-18T11:31:02.904Z,101384.55
2023-04-18T11:36:06.965Z,101381.69
2023-04-18T11:41:16.410Z,101371.89
2023-04-18T11:46:19.253Z,101367.82
2023-04-18T11:51:35.869Z,101368.86
2023-04-18T11:56:48.433Z,101376.83
2023-04-18T12:02:15.499Z,101372.46
2023-04-18T12:07:42.469Z,101368.98
2023-04-18T12:12:50.242Z,101366.65
2023-04-18T12:17:58.496Z,101363.32
2023-04-18T12:23:02.443Z,101355.54
2023-04-18T12:28:15.830Z,101356.17
2023-04-18T12:33:19.553Z,101351.80
2023-04-18T12:38:23.718Z,101352.29
2023-04-18T12:43:29.733Z,101350.71
2023-04-18T12:48:32.530Z,101345.29
2023-04-18T12:53:35.239Z,101341.78
2023-04-18T12:58:37.991Z,101339.20
2023-04-18T13:03:41.329Z,101324.02
2023-04-18T13:08:45.270Z,101316.08
2023-04-18T13:13:48.001Z,101320.02
2023-04-18T13:18:51.015Z,101322.19
2023-04-18T13:23:53.938Z,101321.59
2023-04-18T13:28:57.783Z,101319.88
2023-04-18T13:34:00.718Z,101316.36
2023-04-18T13:39:05.205Z,101319.05
2023-04-18T13:44:08.724Z,101316.73
2023-04-18T13:49:11.589Z,101318.67
2023-04-18T13:54:16.504Z,101318.48
2023-04-18T13:59:19.587Z,101319.09
2023-04-18T14:04:22.893Z,101315.06
2023-04-18T14:09:26.929Z,101318.00
2023-04-18T14:14:29.973Z,101311.16
2023-04-18T14:19:33.185Z,101309.34
2023-04-18T14:24:36.526Z,101308.77
2023-04-18T14:29:39.328Z,101306.82
2023-04-18T14:34:42.852Z,101305.94
2023-04-18T14:39:46.213Z,101311.36
2023-04-18T14:44:48.931Z,101310.49
2023-04-18T14:49:51.737Z,101313.28
2023-04-18T14:54:54.469Z,101312.02
2023-04-18T14:59:57.300Z,101312.66
2023-04-18T15:05:00.534Z,101311.52
2023-04-18T15:10:05.017Z,101314.60
2023-04-18T15:15:08.159Z,101315.15
2023-04-18T15:20:11.310Z,101321.84
2023-04-18T15:25:16.528Z,101320.13
2023-04-18T15:30:20.025Z,101318.95
2023-04-18T15:35:23.094Z,101320.47
2023-04-18T15:40:26.298Z,101320.52
2023-04-18T15:45:29.025Z,101315.32
2023-04-18T15:50:33.534Z,101316.14
2023-04-18T15:55:36.613Z,101317.16
2023-04-18T16:00:40.011Z,101314.27
2023-04-18T16:05:43.032Z,101313.30
2023-04-18T16:10:46.245Z,101312.23
2023-04-18T16:15:49.093Z,101310.20
2023-04-18T16:20:52.211Z,101305.00
2023-04-18T16:25:59.745Z,101306.19
2023-04-18T16:31:02.470Z,101300.23
2023-04-18T16:36:09.019Z,101296.31
2023-04-18T16:41:12.246Z,101295.55
2023-04-18T16:46:15.608Z,101291.10
2023-04-18T16:51:18.557Z,101289.14
2023-04-18T16:56:21.355Z,101287.54
2023-04-18T17:01:24.184Z,101291.20
2023-04-18T17:06:27.333Z,101290.77
2023-04-18T17:11:32.261Z,101291.35
2023-04-18T17:16:41.474Z,101291.48
2023-04-18T17:21:45.461Z,101290.20
2023-04-18T17:26:49.026Z,101287.79
2023-04-18T17:31:54.001Z,101295.20
2023-04-18T17:36:56.963Z,101297.70
2023-04-18T17:42:01.076Z,101294.42
2023-04-18T17:47:03.814Z,101301.30
2023-04-18T17:52:06.721Z,101308.22
2023-04-18T17:57:09.560Z,101309.30
2023-04-18T18:02:12.357Z,101312.39
2023-04-18T18:07:15.679Z,101321.12
2023-04-18T18:12:20.845Z,101320.27
2023-04-18T18:17:23.813Z,101321.79
2023-04-18T18:22:27.006Z,101325.26
2023-04-18T18:27:29.962Z,101320.44
2023-04-18T18:32:32.915Z,101318.36
2023-04-18T18:37:35.752Z,101316.06
2023-04-18T18:42:39.031Z,101313.64
2023-04-18T18:47:42.051Z,101310.38
2023-04-18T18:52:45.186Z,101306.09
2023-04-18T18:57:47.889Z,101303.63
2023-04-18T19:02:50.730Z,101304.61
2023-04-18T19:07:53.500Z,101300.23
2023-04-18T19:12:56.594Z,101299.16
2023-04-18T19:18:00.587Z,101293.99
2023-04-18T19:23:04.505Z,101290.51
2023-04-18T19:28:07.286Z,101286.76
2023-04-18T19:33:10.554Z,101290.86
2023-04-18T19:38:17.208Z,101288.23
2023-04-18T19:43:20.044Z,101278.05
2023-04-18T19:48:22.779Z,101274.24
2023-04-18T19:53:26.324Z,101269.31
2023-04-18T19:58:34.171Z,101266.05
2023-04-18T20:03:37.079Z,101260.70
2023-04-18T20:08:47.403Z,101254.74
2023-04-18T20:13:52.272Z,101248.66
2023-04-18T20:18:57.228Z,101252.99
2023-04-18T20:24:00.027Z,101246.27
2023-04-18T20:29:04.321Z,101240.75
2023-04-18T20:34:07.428Z,101240.56
2023-04-18T20:39:10.239Z,101235.84
2023-04-18T20:44:13.842Z,101234.94
2023-04-18T20:49:16.836Z,101230.06
2023-04-18T20:54:19.794Z,101229.73
2023-04-18T20:59:22.527Z,101225.70
2023-04-18T21:04:25.379Z,101224.72
2023-04-18T21:09:28.212Z,101219.46
2023-04-18T21:14:31.490Z,101218.61
2023-04-18T21:19:34.735Z,101213.23
2023-04-18T21:24:39.034Z,101211.36
2023-04-18T21:29:42.359Z,101204.59
2023-04-18T21:34:45.025Z,101205.34
2023-04-18T21:40:09.571Z,101204.71
2023-04-18T21:45:12.418Z,101205.23
2023-04-18T21:50:16.103Z,101196.32
2023-04-18T21:55:18.911Z,101200.45
2023-04-18T22:00:21.767Z,101199.66
2023-04-18T22:05:26.353Z,101191.12
2023-04-18T22:10:29.106Z,101183.29
2023-04-18T22:15:32.408Z,101181.70
2023-04-18T22:20:38.973Z,101181.42
2023-04-18T22:25:41.911Z,101176.03
2023-04-18T22:30:45.947Z,101176.23
2023-04-18T22:35:49.096Z,101162.56
2023-04-18T22:40:51.925Z,101156.31
2023-04-18T22:45:54.700Z,101155.67
2023-04-18T22:50:57.432Z,101154.09
2023-04-18T22:56:00.152Z,101150.49
2023-04-18T23:01:03.156Z,101141.23
2023-04-18T23:06:08.097Z,101136.73
2023-04-18T23:11:11.221Z,101131.20
2023-04-18T23:16:14.020Z,101126.98
2023-04-18T23:21:17.482Z,101121.26
2023-04-18T23:26:21.054Z,101114.41
2023-04-18T23:31:23.912Z,101105.39
2023-04-18T23:36:27.337Z,101104.34
2023-04-18T23:41:30.085Z,101097.70
2023-04-18T23:46:34.384Z,101087.50
2023-04-18T23:51:39.108Z,101077.52
2023-04-18T23:56:41.793Z,101071.61
